North Brooklin, Maine
Current Conditions -  °F | °C
As of 3:15 AM on Tuesday 27 Jan 2015 (Local Time) from KBHB Reporting Station
Overcast Overcast  
Wind Chill: -11°   Ceiling: 2600
Heat Index: 10°   Visibility: 1.7mi
Dew Point:   Wind: 29mph
Humidity: 79%   Direction: 20°NNE
Pressure: 29.92"   Gusts: 38mph
Location:  44.3032°N, 68.5727°W
Report Text: KBHB 270815Z 02025G33KT 1 3/4SM OVC026 M12/M15 A2992 RMK AO1
Loading
Personal Weather Stations






























Interactive Weather Map New forecast layout! Learn more

10-Day Weather Forecast

Advertisements
Track Severe Weather on mobile